Terminal Aerodrome Forecast
Issued by NWS

Home | Current Version | Previous Version | Text Only | Print | Product List | Glossary On
Versions: 1 2 3 4 5 6 7 8 9 10 11 12 13 14 15 16 17 18 19 20 21 22 23 24 25 26 27
000
FTUS43 KDLH 182300
TAFHYR
TAF
KHYR 182337Z 1900/1924 08008KT P6SM BKN100
     FM190700 12009KT P6SM OVC100 WS015/18035KT
     FM191100 15014G24KT P6SM VCSH OVC050
     FM191300 15020G28KT P6SM -RA OVC045
     FM192000 18010KT P6SM -RA OVC040=

USA.gov is the U.S. government's official web portal to all federal, state and local government web resources and services.